sensor_id;sensor_type;location;lat;lon;timestamp;P1;durP1;ratioP1;P2;durP2;ratioP2
31406;SDS011;18043;52.438;4.836;2022-07-23T00:01:33;3.97;;;2.30;;
31406;SDS011;18043;52.438;4.836;2022-07-23T00:04:06;5.30;;;2.45;;
31406;SDS011;18043;52.438;4.836;2022-07-23T00:06:38;10.90;;;2.90;;
31406;SDS011;18043;52.438;4.836;2022-07-23T00:09:12;3.45;;;2.10;;
31406;SDS011;18043;52.438;4.836;2022-07-23T00:11:44;4.28;;;2.50;;
31406;SDS011;18043;52.438;4.836;2022-07-23T00:14:16;4.75;;;2.22;;
31406;SDS011;18043;52.438;4.836;2022-07-23T00:16:49;6.57;;;2.78;;
31406;SDS011;18043;52.438;4.836;2022-07-23T00:19:21;5.53;;;3.03;;
31406;SDS011;18043;52.438;4.836;2022-07-23T00:21:54;10.27;;;5.85;;
31406;SDS011;18043;52.438;4.836;2022-07-23T00:24:27;6.70;;;4.00;;
31406;SDS011;18043;52.438;4.836;2022-07-23T00:27:00;5.30;;;3.07;;
31406;SDS011;18043;52.438;4.836;2022-07-23T00:29:32;5.53;;;2.97;;
31406;SDS011;18043;52.438;4.836;2022-07-23T00:32:05;4.50;;;2.80;;
31406;SDS011;18043;52.438;4.836;2022-07-23T00:34:43;8.05;;;2.85;;
31406;SDS011;18043;52.438;4.836;2022-07-23T00:37:16;12.50;;;2.83;;
31406;SDS011;18043;52.438;4.836;2022-07-23T00:39:49;5.45;;;2.67;;
31406;SDS011;18043;52.438;4.836;2022-07-23T00:42:22;7.50;;;2.80;;
31406;SDS011;18043;52.438;4.836;2022-07-23T00:44:54;4.18;;;2.92;;
31406;SDS011;18043;52.438;4.836;2022-07-23T00:47:27;8.00;;;2.88;;
31406;SDS011;18043;52.438;4.836;2022-07-23T00:49:59;6.07;;;2.80;;
31406;SDS011;18043;52.438;4.836;2022-07-23T00:52:32;4.53;;;2.63;;
31406;SDS011;18043;52.438;4.836;2022-07-23T00:55:07;4.82;;;3.03;;
31406;SDS011;18043;52.438;4.836;2022-07-23T00:57:41;7.00;;;2.80;;
31406;SDS011;18043;52.438;4.836;2022-07-23T01:00:14;4.70;;;2.75;;
31406;SDS011;18043;52.438;4.836;2022-07-23T01:02:47;7.88;;;2.83;;
31406;SDS011;18043;52.438;4.836;2022-07-23T01:05:20;5.20;;;2.80;;
31406;SDS011;18043;52.438;4.836;2022-07-23T01:07:53;5.35;;;2.83;;
31406;SDS011;18043;52.438;4.836;2022-07-23T01:10:27;4.78;;;3.08;;
31406;SDS011;18043;52.438;4.836;2022-07-23T01:13:03;6.50;;;3.28;;
31406;SDS011;18043;52.438;4.836;2022-07-23T01:15:37;6.10;;;2.92;;
31406;SDS011;18043;52.438;4.836;2022-07-23T01:18:10;4.45;;;2.80;;
31406;SDS011;18043;52.438;4.836;2022-07-23T01:20:43;4.78;;;2.85;;
31406;SDS011;18043;52.438;4.836;2022-07-23T01:23:16;4.47;;;2.92;;
31406;SDS011;18043;52.438;4.836;2022-07-23T01:25:49;4.53;;;3.47;;
31406;SDS011;18043;52.438;4.836;2022-07-23T01:28:24;8.65;;;3.75;;
31406;SDS011;18043;52.438;4.836;2022-07-23T01:30:57;4.93;;;3.20;;
31406;SDS011;18043;52.438;4.836;2022-07-23T01:33:29;6.28;;;3.60;;
31406;SDS011;18043;52.438;4.836;2022-07-23T01:36:02;5.43;;;3.47;;
31406;SDS011;18043;52.438;4.836;2022-07-23T01:38:36;4.45;;;3.35;;
31406;SDS011;18043;52.438;4.836;2022-07-23T01:41:08;7.07;;;4.32;;
31406;SDS011;18043;52.438;4.836;2022-07-23T01:43:41;7.75;;;4.38;;
31406;SDS011;18043;52.438;4.836;2022-07-23T01:46:13;7.25;;;3.83;;
31406;SDS011;18043;52.438;4.836;2022-07-23T01:48:46;6.40;;;3.40;;
31406;SDS011;18043;52.438;4.836;2022-07-23T01:51:18;7.73;;;3.40;;
31406;SDS011;18043;52.438;4.836;2022-07-23T01:53:52;9.60;;;4.50;;
31406;SDS011;18043;52.438;4.836;2022-07-23T01:56:24;6.38;;;3.75;;
31406;SDS011;18043;52.438;4.836;2022-07-23T01:58:57;8.75;;;4.13;;
31406;SDS011;18043;52.438;4.836;2022-07-23T02:01:29;10.32;;;5.20;;
31406;SDS011;18043;52.438;4.836;2022-07-23T02:04:01;6.82;;;4.20;;
31406;SDS011;18043;52.438;4.836;2022-07-23T02:06:34;11.50;;;5.35;;
31406;SDS011;18043;52.438;4.836;2022-07-23T02:09:07;8.63;;;4.45;;
31406;SDS011;18043;52.438;4.836;2022-07-23T02:11:40;8.07;;;4.10;;
31406;SDS011;18043;52.438;4.836;2022-07-23T02:14:13;6.72;;;4.03;;
31406;SDS011;18043;52.438;4.836;2022-07-23T02:16:45;9.13;;;4.65;;
31406;SDS011;18043;52.438;4.836;2022-07-23T02:19:17;10.82;;;5.18;;
31406;SDS011;18043;52.438;4.836;2022-07-23T02:21:50;7.15;;;4.75;;
31406;SDS011;18043;52.438;4.836;2022-07-23T02:24:24;7.70;;;4.77;;
31406;SDS011;18043;52.438;4.836;2022-07-23T02:26:56;6.53;;;5.60;;
31406;SDS011;18043;52.438;4.836;2022-07-23T02:29:28;8.75;;;5.93;;
31406;SDS011;18043;52.438;4.836;2022-07-23T02:32:01;6.30;;;4.75;;
31406;SDS011;18043;52.438;4.836;2022-07-23T02:34:33;8.70;;;5.70;;
31406;SDS011;18043;52.438;4.836;2022-07-23T02:37:06;10.75;;;5.07;;
31406;SDS011;18043;52.438;4.836;2022-07-23T02:39:40;6.38;;;5.20;;
31406;SDS011;18043;52.438;4.836;2022-07-23T02:42:12;5.13;;;4.18;;
31406;SDS011;18043;52.438;4.836;2022-07-23T02:44:45;7.72;;;4.85;;
31406;SDS011;18043;52.438;4.836;2022-07-23T02:47:17;7.15;;;4.75;;
31406;SDS011;18043;52.438;4.836;2022-07-23T02:49:50;10.50;;;5.30;;
31406;SDS011;18043;52.438;4.836;2022-07-23T02:52:22;8.23;;;5.15;;
31406;SDS011;18043;52.438;4.836;2022-07-23T02:54:56;7.40;;;5.03;;
31406;SDS011;18043;52.438;4.836;2022-07-23T02:57:29;12.15;;;5.20;;
31406;SDS011;18043;52.438;4.836;2022-07-23T03:00:02;9.13;;;5.32;;
31406;SDS011;18043;52.438;4.836;2022-07-23T03:02:37;9.52;;;5.10;;
31406;SDS011;18043;52.438;4.836;2022-07-23T03:05:09;10.02;;;5.35;;
31406;SDS011;18043;52.438;4.836;2022-07-23T03:07:42;8.00;;;6.10;;
31406;SDS011;18043;52.438;4.836;2022-07-23T03:10:16;8.63;;;5.38;;
31406;SDS011;18043;52.438;4.836;2022-07-23T03:12:48;11.93;;;5.55;;
31406;SDS011;18043;52.438;4.836;2022-07-23T03:15:21;8.82;;;5.80;;
31406;SDS011;18043;52.438;4.836;2022-07-23T03:17:53;8.50;;;5.40;;
31406;SDS011;18043;52.438;4.836;2022-07-23T03:20:25;6.65;;;4.68;;
31406;SDS011;18043;52.438;4.836;2022-07-23T03:22:58;11.73;;;6.25;;
31406;SDS011;18043;52.438;4.836;2022-07-23T03:25:32;9.15;;;5.93;;
31406;SDS011;18043;52.438;4.836;2022-07-23T03:28:04;9.50;;;5.13;;
31406;SDS011;18043;52.438;4.836;2022-07-23T03:30:36;10.23;;;5.85;;
31406;SDS011;18043;52.438;4.836;2022-07-23T03:33:09;8.20;;;5.53;;
31406;SDS011;18043;52.438;4.836;2022-07-23T03:35:41;10.50;;;5.90;;
31406;SDS011;18043;52.438;4.836;2022-07-23T03:38:14;8.30;;;6.15;;
31406;SDS011;18043;52.438;4.836;2022-07-23T03:40:49;6.70;;;5.32;;
31406;SDS011;18043;52.438;4.836;2022-07-23T03:43:21;9.60;;;5.43;;
31406;SDS011;18043;52.438;4.836;2022-07-23T03:45:55;10.13;;;5.87;;
31406;SDS011;18043;52.438;4.836;2022-07-23T03:48:29;9.02;;;6.45;;
31406;SDS011;18043;52.438;4.836;2022-07-23T03:51:01;7.25;;;5.65;;
31406;SDS011;18043;52.438;4.836;2022-07-23T03:53:34;13.25;;;6.35;;
31406;SDS011;18043;52.438;4.836;2022-07-23T03:56:15;10.30;;;5.82;;
31406;SDS011;18043;52.438;4.836;2022-07-23T03:58:47;9.18;;;5.70;;
31406;SDS011;18043;52.438;4.836;2022-07-23T04:01:20;10.27;;;5.53;;
31406;SDS011;18043;52.438;4.836;2022-07-23T04:03:52;10.73;;;6.18;;
31406;SDS011;18043;52.438;4.836;2022-07-23T04:06:24;6.82;;;5.55;;
31406;SDS011;18043;52.438;4.836;2022-07-23T04:08:57;9.05;;;5.60;;
31406;SDS011;18043;52.438;4.836;2022-07-23T04:11:31;8.30;;;4.95;;
31406;SDS011;18043;52.438;4.836;2022-07-23T04:14:03;8.15;;;5.00;;
31406;SDS011;18043;52.438;4.836;2022-07-23T04:16:36;9.52;;;5.65;;
31406;SDS011;18043;52.438;4.836;2022-07-23T04:19:08;9.35;;;5.93;;
31406;SDS011;18043;52.438;4.836;2022-07-23T04:21:40;7.78;;;6.22;;
31406;SDS011;18043;52.438;4.836;2022-07-23T04:24:13;7.90;;;5.72;;
31406;SDS011;18043;52.438;4.836;2022-07-23T04:26:46;8.93;;;5.35;;
31406;SDS011;18043;52.438;4.836;2022-07-23T04:29:19;8.60;;;5.60;;
31406;SDS011;18043;52.438;4.836;2022-07-23T04:31:51;10.88;;;5.93;;
31406;SDS011;18043;52.438;4.836;2022-07-23T04:34:24;8.90;;;5.50;;
31406;SDS011;18043;52.438;4.836;2022-07-23T04:36:56;10.35;;;5.35;;
31406;SDS011;18043;52.438;4.836;2022-07-23T04:39:29;11.52;;;5.50;;
31406;SDS011;18043;52.438;4.836;2022-07-23T04:42:03;10.13;;;5.00;;
31406;SDS011;18043;52.438;4.836;2022-07-23T04:44:35;9.73;;;5.93;;
31406;SDS011;18043;52.438;4.836;2022-07-23T04:47:08;6.20;;;4.57;;
31406;SDS011;18043;52.438;4.836;2022-07-23T04:49:40;9.38;;;5.32;;
31406;SDS011;18043;52.438;4.836;2022-07-23T04:52:13;10.27;;;5.90;;
31406;SDS011;18043;52.438;4.836;2022-07-23T04:54:46;7.93;;;5.35;;
31406;SDS011;18043;52.438;4.836;2022-07-23T04:57:19;9.02;;;5.10;;
31406;SDS011;18043;52.438;4.836;2022-07-23T04:59:52;7.05;;;5.15;;
31406;SDS011;18043;52.438;4.836;2022-07-23T05:02:24;9.73;;;4.88;;
31406;SDS011;18043;52.438;4.836;2022-07-23T05:04:56;7.22;;;5.00;;
31406;SDS011;18043;52.438;4.836;2022-07-23T05:07:29;8.63;;;5.00;;
31406;SDS011;18043;52.438;4.836;2022-07-23T05:10:01;10.90;;;5.38;;
31406;SDS011;18043;52.438;4.836;2022-07-23T05:12:36;6.63;;;4.47;;
31406;SDS011;18043;52.438;4.836;2022-07-23T05:15:08;7.47;;;3.75;;
31406;SDS011;18043;52.438;4.836;2022-07-23T05:17:40;5.90;;;3.55;;
31406;SDS011;18043;52.438;4.836;2022-07-23T05:20:13;7.25;;;3.40;;
31406;SDS011;18043;52.438;4.836;2022-07-23T05:22:46;9.35;;;3.13;;
31406;SDS011;18043;52.438;4.836;2022-07-23T05:25:18;6.82;;;3.05;;
31406;SDS011;18043;52.438;4.836;2022-07-23T05:27:52;6.15;;;2.60;;
31406;SDS011;18043;52.438;4.836;2022-07-23T05:30:27;7.60;;;2.67;;
31406;SDS011;18043;52.438;4.836;2022-07-23T05:33:00;5.22;;;2.35;;
31406;SDS011;18043;52.438;4.836;2022-07-23T05:35:32;9.45;;;2.45;;
31406;SDS011;18043;52.438;4.836;2022-07-23T05:38:05;3.67;;;1.70;;
31406;SDS011;18043;52.438;4.836;2022-07-23T05:40:37;6.05;;;1.90;;
31406;SDS011;18043;52.438;4.836;2022-07-23T05:43:11;4.55;;;1.33;;
31406;SDS011;18043;52.438;4.836;2022-07-23T05:45:44;2.92;;;1.17;;
31406;SDS011;18043;52.438;4.836;2022-07-23T05:48:16;3.45;;;1.20;;
31406;SDS011;18043;52.438;4.836;2022-07-23T05:50:48;2.13;;;0.88;;
31406;SDS011;18043;52.438;4.836;2022-07-23T05:53:21;2.10;;;1.10;;
31406;SDS011;18043;52.438;4.836;2022-07-23T05:55:54;3.92;;;1.40;;
31406;SDS011;18043;52.438;4.836;2022-07-23T05:58:27;3.90;;;1.00;;
31406;SDS011;18043;52.438;4.836;2022-07-23T06:01:00;3.28;;;0.82;;
31406;SDS011;18043;52.438;4.836;2022-07-23T06:03:32;2.90;;;0.90;;
31406;SDS011;18043;52.438;4.836;2022-07-23T06:06:05;3.28;;;0.90;;
31406;SDS011;18043;52.438;4.836;2022-07-23T06:08:38;3.17;;;1.10;;
31406;SDS011;18043;52.438;4.836;2022-07-23T06:11:10;4.37;;;1.30;;
31406;SDS011;18043;52.438;4.836;2022-07-23T06:13:44;4.38;;;1.38;;
31406;SDS011;18043;52.438;4.836;2022-07-23T06:16:16;2.88;;;1.50;;
31406;SDS011;18043;52.438;4.836;2022-07-23T06:18:48;2.50;;;1.20;;
31406;SDS011;18043;52.438;4.836;2022-07-23T06:21:21;4.38;;;2.10;;
31406;SDS011;18043;52.438;4.836;2022-07-23T06:23:53;2.80;;;1.40;;
31406;SDS011;18043;52.438;4.836;2022-07-23T06:26:26;4.70;;;1.80;;
31406;SDS011;18043;52.438;4.836;2022-07-23T06:29:02;3.55;;;1.42;;
31406;SDS011;18043;52.438;4.836;2022-07-23T06:31:35;6.93;;;1.42;;
31406;SDS011;18043;52.438;4.836;2022-07-23T06:34:07;2.97;;;1.10;;
31406;SDS011;18043;52.438;4.836;2022-07-23T06:36:40;4.05;;;1.60;;
31406;SDS011;18043;52.438;4.836;2022-07-23T06:39:12;3.85;;;1.52;;
31406;SDS011;18043;52.438;4.836;2022-07-23T06:41:45;4.10;;;1.30;;
31406;SDS011;18043;52.438;4.836;2022-07-23T06:44:19;4.32;;;1.20;;
31406;SDS011;18043;52.438;4.836;2022-07-23T06:46:51;1.38;;;0.73;;
31406;SDS011;18043;52.438;4.836;2022-07-23T06:49:23;3.30;;;0.93;;
31406;SDS011;18043;52.438;4.836;2022-07-23T06:51:56;3.92;;;1.20;;
31406;SDS011;18043;52.438;4.836;2022-07-23T06:54:28;6.70;;;1.13;;
31406;SDS011;18043;52.438;4.836;2022-07-23T06:57:01;4.47;;;1.20;;
31406;SDS011;18043;52.438;4.836;2022-07-23T06:59:35;3.30;;;1.13;;
31406;SDS011;18043;52.438;4.836;2022-07-23T07:02:10;23.25;;;2.00;;
31406;SDS011;18043;52.438;4.836;2022-07-23T07:04:43;53.90;;;4.30;;
31406;SDS011;18043;52.438;4.836;2022-07-23T07:07:16;7.75;;;1.17;;
31406;SDS011;18043;52.438;4.836;2022-07-23T07:09:49;11.27;;;1.63;;
31406;SDS011;18043;52.438;4.836;2022-07-23T07:12:21;6.70;;;1.30;;
31406;SDS011;18043;52.438;4.836;2022-07-23T07:14:55;2.80;;;1.13;;
31406;SDS011;18043;52.438;4.836;2022-07-23T07:17:28;3.40;;;1.20;;
31406;SDS011;18043;52.438;4.836;2022-07-23T07:20:01;2.60;;;0.68;;
31406;SDS011;18043;52.438;4.836;2022-07-23T07:22:34;2.92;;;0.65;;
31406;SDS011;18043;52.438;4.836;2022-07-23T07:25:06;3.47;;;0.90;;
31406;SDS011;18043;52.438;4.836;2022-07-23T07:27:39;2.42;;;1.15;;
31406;SDS011;18043;52.438;4.836;2022-07-23T07:30:15;2.88;;;1.10;;
31406;SDS011;18043;52.438;4.836;2022-07-23T07:32:47;2.30;;;0.97;;
31406;SDS011;18043;52.438;4.836;2022-07-23T07:35:20;5.05;;;1.50;;
31406;SDS011;18043;52.438;4.836;2022-07-23T07:37:52;2.88;;;0.73;;
31406;SDS011;18043;52.438;4.836;2022-07-23T07:40:25;2.70;;;0.67;;
31406;SDS011;18043;52.438;4.836;2022-07-23T07:42:58;2.10;;;0.80;;
31406;SDS011;18043;52.438;4.836;2022-07-23T07:45:33;2.30;;;0.73;;
31406;SDS011;18043;52.438;4.836;2022-07-23T07:48:05;1.92;;;0.75;;
31406;SDS011;18043;52.438;4.836;2022-07-23T07:50:38;1.87;;;1.10;;
31406;SDS011;18043;52.438;4.836;2022-07-23T07:53:10;3.25;;;1.63;;
31406;SDS011;18043;52.438;4.836;2022-07-23T07:55:42;3.15;;;0.95;;
31406;SDS011;18043;52.438;4.836;2022-07-23T07:58:15;4.05;;;1.38;;
31406;SDS011;18043;52.438;4.836;2022-07-23T08:00:49;3.30;;;1.17;;
31406;SDS011;18043;52.438;4.836;2022-07-23T08:03:22;2.95;;;1.20;;
31406;SDS011;18043;52.438;4.836;2022-07-23T08:05:54;3.22;;;1.20;;
31406;SDS011;18043;52.438;4.836;2022-07-23T08:08:27;4.90;;;1.50;;
31406;SDS011;18043;52.438;4.836;2022-07-23T08:10:59;2.03;;;0.85;;
31406;SDS011;18043;52.438;4.836;2022-07-23T08:13:31;4.68;;;1.27;;
31406;SDS011;18043;52.438;4.836;2022-07-23T08:16:06;3.90;;;0.93;;
31406;SDS011;18043;52.438;4.836;2022-07-23T08:18:38;6.32;;;1.30;;
31406;SDS011;18043;52.438;4.836;2022-07-23T08:21:11;1.93;;;0.77;;
31406;SDS011;18043;52.438;4.836;2022-07-23T08:23:43;2.33;;;0.77;;
31406;SDS011;18043;52.438;4.836;2022-07-23T08:30:08;4.00;;;0.70;;
31406;SDS011;18043;52.438;4.836;2022-07-23T08:32:52;2.95;;;0.70;;
31406;SDS011;18043;52.438;4.836;2022-07-23T08:35:29;2.40;;;0.60;;
31406;SDS011;18043;52.438;4.836;2022-07-23T08:38:03;1.98;;;0.70;;
31406;SDS011;18043;52.438;4.836;2022-07-23T08:40:38;2.55;;;1.20;;
31406;SDS011;18043;52.438;4.836;2022-07-23T08:50:55;2.53;;;0.65;;
31406;SDS011;18043;52.438;4.836;2022-07-23T08:53:30;1.53;;;0.90;;
31406;SDS011;18043;52.438;4.836;2022-07-23T08:56:05;4.47;;;0.80;;
31406;SDS011;18043;52.438;4.836;2022-07-23T08:58:38;1.58;;;0.63;;
31406;SDS011;18043;52.438;4.836;2022-07-23T09:01:10;2.53;;;0.60;;
31406;SDS011;18043;52.438;4.836;2022-07-23T09:03:43;2.60;;;0.87;;
31406;SDS011;18043;52.438;4.836;2022-07-23T09:06:17;2.80;;;0.90;;
31406;SDS011;18043;52.438;4.836;2022-07-23T09:08:49;2.08;;;0.60;;
31406;SDS011;18043;52.438;4.836;2022-07-23T09:11:22;3.55;;;1.02;;
31406;SDS011;18043;52.438;4.836;2022-07-23T09:13:54;1.67;;;0.83;;
31406;SDS011;18043;52.438;4.836;2022-07-23T09:16:29;1.95;;;0.85;;
31406;SDS011;18043;52.438;4.836;2022-07-23T09:19:03;1.63;;;0.75;;
31406;SDS011;18043;52.438;4.836;2022-07-23T09:21:39;1.83;;;0.80;;
31406;SDS011;18043;52.438;4.836;2022-07-23T09:24:12;1.83;;;1.13;;
31406;SDS011;18043;52.438;4.836;2022-07-23T09:26:46;1.83;;;0.60;;
31406;SDS011;18043;52.438;4.836;2022-07-23T09:29:24;4.53;;;0.80;;
31406;SDS011;18043;52.438;4.836;2022-07-23T09:31:57;3.10;;;0.88;;
31406;SDS011;18043;52.438;4.836;2022-07-23T09:34:32;3.30;;;1.10;;
31406;SDS011;18043;52.438;4.836;2022-07-23T09:37:10;5.68;;;1.38;;
31406;SDS011;18043;52.438;4.836;2022-07-23T09:39:45;1.50;;;0.77;;
31406;SDS011;18043;52.438;4.836;2022-07-23T09:42:19;4.75;;;1.20;;
31406;SDS011;18043;52.438;4.836;2022-07-23T09:44:54;4.68;;;1.00;;
31406;SDS011;18043;52.438;4.836;2022-07-23T09:47:29;3.35;;;1.10;;
31406;SDS011;18043;52.438;4.836;2022-07-23T09:50:04;2.50;;;0.95;;
31406;SDS011;18043;52.438;4.836;2022-07-23T09:52:43;2.72;;;1.20;;
31406;SDS011;18043;52.438;4.836;2022-07-23T09:55:18;3.17;;;1.10;;
31406;SDS011;18043;52.438;4.836;2022-07-23T09:58:02;2.42;;;1.20;;
31406;SDS011;18043;52.438;4.836;2022-07-23T10:00:34;3.08;;;1.35;;
31406;SDS011;18043;52.438;4.836;2022-07-23T10:03:07;3.00;;;1.20;;
31406;SDS011;18043;52.438;4.836;2022-07-23T10:05:42;3.50;;;1.40;;
31406;SDS011;18043;52.438;4.836;2022-07-23T10:08:17;1.73;;;1.05;;
31406;SDS011;18043;52.438;4.836;2022-07-23T10:10:50;2.72;;;1.30;;
31406;SDS011;18043;52.438;4.836;2022-07-23T10:13:24;4.20;;;1.33;;
31406;SDS011;18043;52.438;4.836;2022-07-23T10:16:14;2.80;;;1.60;;
31406;SDS011;18043;52.438;4.836;2022-07-23T10:18:46;3.72;;;1.40;;
31406;SDS011;18043;52.438;4.836;2022-07-23T10:21:21;2.42;;;1.20;;
31406;SDS011;18043;52.438;4.836;2022-07-23T10:24:08;4.95;;;1.40;;
31406;SDS011;18043;52.438;4.836;2022-07-23T10:26:51;5.00;;;1.40;;
31406;SDS011;18043;52.438;4.836;2022-07-23T10:29:38;2.60;;;1.38;;
31406;SDS011;18043;52.438;4.836;2022-07-23T10:32:21;3.05;;;1.45;;
31406;SDS011;18043;52.438;4.836;2022-07-23T10:35:07;4.70;;;1.50;;
31406;SDS011;18043;52.438;4.836;2022-07-23T10:37:49;2.78;;;1.40;;
31406;SDS011;18043;52.438;4.836;2022-07-23T10:40:28;3.05;;;1.27;;
31406;SDS011;18043;52.438;4.836;2022-07-23T10:43:03;3.08;;;1.10;;
31406;SDS011;18043;52.438;4.836;2022-07-23T10:45:47;12.07;;;7.35;;
31406;SDS011;18043;52.438;4.836;2022-07-23T10:48:20;4.85;;;2.22;;
31406;SDS011;18043;52.438;4.836;2022-07-23T10:51:09;4.40;;;1.70;;
31406;SDS011;18043;52.438;4.836;2022-07-23T10:53:53;5.75;;;1.70;;
31406;SDS011;18043;52.438;4.836;2022-07-23T11:02:53;3.83;;;1.80;;
31406;SDS011;18043;52.438;4.836;2022-07-23T11:05:39;9.15;;;1.95;;
31406;SDS011;18043;52.438;4.836;2022-07-23T11:08:17;3.78;;;1.90;;
31406;SDS011;18043;52.438;4.836;2022-07-23T11:10:51;4.68;;;1.65;;
31406;SDS011;18043;52.438;4.836;2022-07-23T11:13:37;4.00;;;1.38;;
31406;SDS011;18043;52.438;4.836;2022-07-23T11:16:17;5.13;;;2.05;;
31406;SDS011;18043;52.438;4.836;2022-07-23T11:19:04;2.88;;;1.55;;
31406;SDS011;18043;52.438;4.836;2022-07-23T11:21:41;4.85;;;1.98;;
31406;SDS011;18043;52.438;4.836;2022-07-23T11:24:20;5.57;;;2.45;;
31406;SDS011;18043;52.438;4.836;2022-07-23T11:27:01;2.90;;;1.60;;
31406;SDS011;18043;52.438;4.836;2022-07-23T11:29:39;5.25;;;2.05;;
31406;SDS011;18043;52.438;4.836;2022-07-23T11:32:27;3.33;;;2.40;;
31406;SDS011;18043;52.438;4.836;2022-07-23T11:35:21;5.22;;;2.22;;
31406;SDS011;18043;52.438;4.836;2022-07-23T11:38:05;4.22;;;2.10;;
31406;SDS011;18043;52.438;4.836;2022-07-23T11:40:43;2.85;;;1.75;;
31406;SDS011;18043;52.438;4.836;2022-07-23T11:43:18;2.20;;;1.40;;
31406;SDS011;18043;52.438;4.836;2022-07-23T11:45:52;6.70;;;2.40;;
31406;SDS011;18043;52.438;4.836;2022-07-23T11:48:29;3.72;;;1.77;;
31406;SDS011;18043;52.438;4.836;2022-07-23T11:51:02;3.63;;;1.67;;
31406;SDS011;18043;52.438;4.836;2022-07-23T11:53:35;4.30;;;1.90;;
31406;SDS011;18043;52.438;4.836;2022-07-23T11:56:09;8.02;;;2.35;;
31406;SDS011;18043;52.438;4.836;2022-07-23T11:58:53;4.07;;;2.20;;
31406;SDS011;18043;52.438;4.836;2022-07-23T12:01:28;3.80;;;2.13;;
31406;SDS011;18043;52.438;4.836;2022-07-23T12:04:01;5.00;;;2.42;;
31406;SDS011;18043;52.438;4.836;2022-07-23T12:06:37;3.13;;;1.88;;
31406;SDS011;18043;52.438;4.836;2022-07-23T12:09:10;6.13;;;2.10;;
31406;SDS011;18043;52.438;4.836;2022-07-23T12:11:55;3.50;;;2.08;;
31406;SDS011;18043;52.438;4.836;2022-07-23T12:14:29;4.45;;;2.65;;
31406;SDS011;18043;52.438;4.836;2022-07-23T12:17:08;5.40;;;2.38;;
31406;SDS011;18043;52.438;4.836;2022-07-23T12:19:41;7.25;;;2.05;;
31406;SDS011;18043;52.438;4.836;2022-07-23T12:22:14;4.93;;;2.10;;
31406;SDS011;18043;52.438;4.836;2022-07-23T12:24:53;6.35;;;2.30;;
31406;SDS011;18043;52.438;4.836;2022-07-23T12:27:30;3.60;;;1.95;;
31406;SDS011;18043;52.438;4.836;2022-07-23T12:32:57;3.83;;;1.92;;
31406;SDS011;18043;52.438;4.836;2022-07-23T12:35:31;5.75;;;1.95;;
31406;SDS011;18043;52.438;4.836;2022-07-23T12:38:07;4.25;;;2.30;;
31406;SDS011;18043;52.438;4.836;2022-07-23T12:40:43;5.40;;;2.05;;
31406;SDS011;18043;52.438;4.836;2022-07-23T12:43:21;4.78;;;2.15;;
31406;SDS011;18043;52.438;4.836;2022-07-23T12:45:57;3.72;;;2.22;;
31406;SDS011;18043;52.438;4.836;2022-07-23T12:48:37;4.30;;;2.10;;
31406;SDS011;18043;52.438;4.836;2022-07-23T12:51:21;6.10;;;2.22;;
31406;SDS011;18043;52.438;4.836;2022-07-23T12:53:55;4.50;;;1.95;;
31406;SDS011;18043;52.438;4.836;2022-07-23T12:56:35;4.73;;;2.10;;
31406;SDS011;18043;52.438;4.836;2022-07-23T12:59:11;3.37;;;1.90;;
31406;SDS011;18043;52.438;4.836;2022-07-23T13:01:53;6.55;;;2.20;;
31406;SDS011;18043;52.438;4.836;2022-07-23T13:04:29;5.63;;;1.98;;
31406;SDS011;18043;52.438;4.836;2022-07-23T13:07:03;5.22;;;1.90;;
31406;SDS011;18043;52.438;4.836;2022-07-23T13:09:35;5.97;;;2.17;;
31406;SDS011;18043;52.438;4.836;2022-07-23T13:12:08;4.78;;;2.60;;
31406;SDS011;18043;52.438;4.836;2022-07-23T13:14:40;4.55;;;2.10;;
31406;SDS011;18043;52.438;4.836;2022-07-23T13:17:12;3.85;;;2.22;;
31406;SDS011;18043;52.438;4.836;2022-07-23T13:19:46;5.28;;;2.38;;
31406;SDS011;18043;52.438;4.836;2022-07-23T13:22:18;4.95;;;2.33;;
31406;SDS011;18043;52.438;4.836;2022-07-23T13:24:51;9.98;;;3.63;;
31406;SDS011;18043;52.438;4.836;2022-07-23T13:27:23;5.13;;;2.60;;
31406;SDS011;18043;52.438;4.836;2022-07-23T13:29:55;3.40;;;1.48;;
31406;SDS011;18043;52.438;4.836;2022-07-23T13:32:28;4.23;;;1.80;;
31406;SDS011;18043;52.438;4.836;2022-07-23T13:35:02;3.85;;;1.90;;
31406;SDS011;18043;52.438;4.836;2022-07-23T13:37:36;7.30;;;2.10;;
31406;SDS011;18043;52.438;4.836;2022-07-23T13:40:08;6.05;;;2.30;;
31406;SDS011;18043;52.438;4.836;2022-07-23T13:42:41;3.80;;;2.00;;
31406;SDS011;18043;52.438;4.836;2022-07-23T13:45:13;4.70;;;1.80;;
31406;SDS011;18043;52.438;4.836;2022-07-23T13:47:46;3.10;;;1.60;;
31406;SDS011;18043;52.438;4.836;2022-07-23T13:50:20;6.95;;;2.92;;
31406;SDS011;18043;52.438;4.836;2022-07-23T13:52:53;5.10;;;2.25;;
31406;SDS011;18043;52.438;4.836;2022-07-23T13:55:26;4.03;;;2.37;;
31406;SDS011;18043;52.438;4.836;2022-07-23T13:57:58;8.52;;;2.50;;
31406;SDS011;18043;52.438;4.836;2022-07-23T14:00:31;8.10;;;2.65;;
31406;SDS011;18043;52.438;4.836;2022-07-23T14:03:05;4.30;;;2.40;;
31406;SDS011;18043;52.438;4.836;2022-07-23T14:05:39;4.95;;;2.50;;
31406;SDS011;18043;52.438;4.836;2022-07-23T14:08:11;3.25;;;2.08;;
31406;SDS011;18043;52.438;4.836;2022-07-23T14:10:44;4.05;;;2.30;;
31406;SDS011;18043;52.438;4.836;2022-07-23T14:13:16;7.47;;;2.35;;
31406;SDS011;18043;52.438;4.836;2022-07-23T14:15:48;6.13;;;2.85;;
31406;SDS011;18043;52.438;4.836;2022-07-23T14:18:20;10.30;;;3.10;;
31406;SDS011;18043;52.438;4.836;2022-07-23T14:20:54;4.30;;;2.15;;
31406;SDS011;18043;52.438;4.836;2022-07-23T14:23:26;4.70;;;2.05;;
31406;SDS011;18043;52.438;4.836;2022-07-23T14:25:59;4.17;;;2.60;;
31406;SDS011;18043;52.438;4.836;2022-07-23T14:28:33;4.35;;;1.92;;
31406;SDS011;18043;52.438;4.836;2022-07-23T14:31:06;5.22;;;2.50;;
31406;SDS011;18043;52.438;4.836;2022-07-23T14:33:38;4.47;;;2.88;;
31406;SDS011;18043;52.438;4.836;2022-07-23T14:36:12;5.43;;;2.57;;
31406;SDS011;18043;52.438;4.836;2022-07-23T14:38:44;5.22;;;2.15;;
31406;SDS011;18043;52.438;4.836;2022-07-23T14:41:17;7.10;;;2.10;;
31406;SDS011;18043;52.438;4.836;2022-07-23T14:43:49;5.53;;;2.40;;
31406;SDS011;18043;52.438;4.836;2022-07-23T14:46:21;3.42;;;2.20;;
31406;SDS011;18043;52.438;4.836;2022-07-23T14:48:54;3.42;;;1.65;;
31406;SDS011;18043;52.438;4.836;2022-07-23T14:51:27;6.15;;;1.73;;
31406;SDS011;18043;52.438;4.836;2022-07-23T14:54:00;4.50;;;1.98;;
31406;SDS011;18043;52.438;4.836;2022-07-23T14:56:32;3.83;;;1.70;;
31406;SDS011;18043;52.438;4.836;2022-07-23T14:59:06;6.30;;;1.80;;
31406;SDS011;18043;52.438;4.836;2022-07-23T15:01:39;3.75;;;2.10;;
31406;SDS011;18043;52.438;4.836;2022-07-23T15:04:11;4.78;;;1.73;;
31406;SDS011;18043;52.438;4.836;2022-07-23T15:06:45;4.22;;;1.52;;
31406;SDS011;18043;52.438;4.836;2022-07-23T15:09:18;3.87;;;1.60;;
31406;SDS011;18043;52.438;4.836;2022-07-23T15:11:50;3.80;;;1.55;;
31406;SDS011;18043;52.438;4.836;2022-07-23T15:14:22;6.80;;;1.60;;
31406;SDS011;18043;52.438;4.836;2022-07-23T15:16:55;5.37;;;1.70;;
31406;SDS011;18043;52.438;4.836;2022-07-23T15:19:27;6.10;;;1.87;;
31406;SDS011;18043;52.438;4.836;2022-07-23T15:22:01;2.60;;;1.42;;
31406;SDS011;18043;52.438;4.836;2022-07-23T15:24:34;3.95;;;1.77;;
31406;SDS011;18043;52.438;4.836;2022-07-23T15:27:06;4.18;;;1.50;;
31406;SDS011;18043;52.438;4.836;2022-07-23T15:29:39;3.88;;;1.48;;
31406;SDS011;18043;52.438;4.836;2022-07-23T15:32:11;1.90;;;1.00;;
31406;SDS011;18043;52.438;4.836;2022-07-23T15:34:43;4.13;;;1.80;;
31406;SDS011;18043;52.438;4.836;2022-07-23T15:37:17;4.28;;;1.60;;
31406;SDS011;18043;52.438;4.836;2022-07-23T15:39:53;3.20;;;1.38;;
31406;SDS011;18043;52.438;4.836;2022-07-23T15:42:25;2.35;;;1.35;;
31406;SDS011;18043;52.438;4.836;2022-07-23T15:44:57;4.60;;;1.63;;
31406;SDS011;18043;52.438;4.836;2022-07-23T15:47:30;3.65;;;1.55;;